Flight Track Log - Related Links

Times and Time Zones

All times are in EDT time to prevent confusion due to time zone crossing. See the N749SS flight status page for this flight to view local times or setup timezone preferences in your user account.

Time Position Orientation Groundspeed Altitude Reporting Facility
EDT Latitude Longitude Course Direction KTS MPH feet Rate Location/Type
Fri 06:09:08 PM 33.6064 -111.9500 328° Northwest 160 184 3,400  Level Albuquerque Center
Fri 06:10:10 PM 33.6492 -111.9822 328° Northwest 221 254 5,800 1,258 Climbing Albuquerque Center
Fri 06:11:12 PM 33.7225 -111.9669 10° North 268 308 6,000 1,161 Climbing Albuquerque Center
Fri 06:12:14 PM 33.8050 -111.9464 12° North 298 343 8,200 2,439 Climbing Albuquerque Center
Fri 06:13:15 PM 33.8669 -111.8867 39° Northeast 289 333 11,000 2,341 Climbing Albuquerque Center
Fri 06:14:17 PM 33.9414 -111.8236 35° Northeast 321 369 13,000 1,161 Climbing Albuquerque Center
Fri 06:15:19 PM 34.0397 -111.7394 35° Northeast 394 453 13,400 484 Climbing Albuquerque Center
Fri 06:16:21 PM 34.1297 -111.6664 34° Northeast 394 453 14,000 927 Climbing Albuquerque Center
Fri 06:17:22 PM 34.2081 -111.5711 45° Northeast 399 459 15,300 2,195 Climbing Albuquerque Center
Fri 06:18:24 PM 34.3078 -111.4694 40° Northeast 396 456 18,500 2,274 Climbing Albuquerque Center
Fri 06:19:26 PM 34.4144 -111.4172 22° Northeast 411 473 20,000 2,081 Climbing Albuquerque Center
Fri 06:20:28 PM 34.4953 -111.3194 45° Northeast 412 474 22,800 2,371 Climbing Albuquerque Center
Fri 06:21:30 PM 34.5736 -111.2217 46° Northeast 406 467 24,900 1,951 Climbing Albuquerque Center
Fri 06:22:31 PM 34.6533 -111.1231 45° Northeast 408 470 26,800 1,902 Climbing Albuquerque Center
Fri 06:23:33 PM 34.7325 -111.0239 46° Northeast 408 470 28,800 1,935 Climbing Albuquerque Center
Fri 06:24:35 PM 34.8128 -110.9233 46° Northeast 413 475 30,800 2,081 Climbing Albuquerque Center
Fri 06:25:37 PM 34.9100 -110.8050 45° Northeast 413 475 33,100 2,000 Climbing Albuquerque Center
Fri 06:26:38 PM 34.9922 -110.7033 45° Northeast 412 474 34,900 1,610 Climbing Albuquerque Center
Fri 06:27:40 PM 35.0686 -110.6072 46° Northeast 412 474 36,400 1,452 Climbing Albuquerque Center
Fri 06:28:42 PM 35.1592 -110.4939 46° Northeast 416 479 37,900 1,268 Climbing Albuquerque Center
Fri 06:29:43 PM 35.2364 -110.3969 46° Northeast 416 479 39,000 537 Climbing Albuquerque Center
Fri 06:30:45 PM 35.3306 -110.2764 46° Northeast 431 496 39,000  Level Albuquerque Center
Fri 06:31:47 PM 35.4164 -110.1675 46° Northeast 455 524 39,000  Level Albuquerque Center
Fri 06:32:48 PM 35.5025 -110.0581 46° Northeast 463 533 39,000 98 Level Albuquerque Center
Fri 06:33:50 PM 35.6031 -109.9303 46° Northeast 465 535 39,200 435 Climbing Albuquerque Center
Fri 06:34:52 PM 35.6872 -109.8225 46° Northeast 459 528 39,900 683 Climbing Albuquerque Center
Fri 06:35:53 PM 35.7733 -109.6861 52° Northeast 454 522 40,600 537 Climbing Albuquerque Center
Fri 06:36:55 PM 35.8442 -109.5675 54° Northeast 450 518 41,000 194 Climbing Albuquerque Center
Fri 06:37:57 PM 35.9058 -109.4133 64° Northeast 449 517 41,000  Level Albuquerque Center
Fri 06:38:58 PM 35.9597 -109.2825 63° Northeast 448 516 41,000  Level Albuquerque Center
Fri 06:40:00 PM 36.0114 -109.1578 63° Northeast 443 510 41,000  Level Albuquerque Center
Fri 06:41:02 PM 36.0686 -109.0219 62° Northeast 445 512 41,000  Level Albuquerque Center
Fri 06:42:03 PM 36.1242 -108.8861 63° Northeast 443 510 41,000  Level Albuquerque Center
Fri 06:43:05 PM 36.1886 -108.7336 62° Northeast 443 510 41,000  Level Albuquerque Center
Fri 06:44:06 PM 36.2489 -108.5819 64° Northeast 439 505 41,000  Level Albuquerque Center
Fri 06:45:08 PM 36.3014 -108.4522 63° Northeast 438 504 41,000  Level Albuquerque Center
Fri 06:46:09 PM 36.3542 -108.3219 63° Northeast 441 507 41,000  Level Albuquerque Center
Fri 06:47:11 PM 36.4156 -108.1686 64° Northeast 443 510 41,000  Level Albuquerque Center
Fri 06:48:12 PM 36.4683 -108.0356 64° Northeast 446 513 41,000  Level Albuquerque Center
Fri 06:49:14 PM 36.5308 -107.8806 63° Northeast 448 516 41,000  Level Albuquerque Center
Fri 06:50:38 PM 36.6003 -107.7006 64° Northeast 450 518 41,000  Level Denver Center
Fri 06:51:40 PM 36.6611 -107.5450 64° Northeast 447 514 41,000  Level Denver Center
Fri 06:52:42 PM 36.7144 -107.4131 63° Northeast 447 514 41,000  Level Denver Center
Fri 06:53:44 PM 36.7742 -107.2586 64° Northeast 444 511 41,000  Level Denver Center
Fri 06:54:46 PM 36.8256 -107.1247 64° Northeast 445 512 41,000  Level Denver Center
Fri 06:55:48 PM 36.8872 -106.9703 63° Northeast 446 513 41,000  Level Denver Center
Fri 06:56:49 PM 36.9397 -106.8375 64° Northeast 446 513 41,000  Level Denver Center
Fri 06:57:51 PM 36.9994 -106.6803 65° Northeast 449 517 41,000  Level Denver Center
Fri 06:58:53 PM 37.0514 -106.5464 64° Northeast 447 514 41,000  Level Denver Center
Fri 06:59:55 PM 37.1022 -106.4108 65° Northeast 447 514 41,000  Level Denver Center

Login

Don't have an account? Register now (free) for customized features, flight alerts, and more!